Time;durP1;ratioP1;P1;durP2;ratioP2;P2;SDS_P1;SDS_P2;PMS_P1;PMS_P2;Temp;Humidity;BMP_temperature;BMP_pressure;BME280_temperature;BME280_humidity;BME280_pressure;Samples;Min_cycle;Max_cycle;Signal;HPM_P1;HPM_P2
2023/07/04 00:00:23;;;;;;;2.43;1.70;;;17.20;99.90;;;;;;5020747;28;20453;-92
2023/07/04 00:02:50;;;;;;;1.87;1.40;;;17.10;99.90;;;;;;5026190;28;20469;-93
2023/07/04 00:05:17;;;;;;;2.87;1.70;;;17.10;99.90;;;;;;5023171;28;20465;-92
2023/07/04 00:07:44;;;;;;;2.23;1.90;;;17.10;99.90;;;;;;5024764;28;20494;-93
2023/07/04 00:10:11;;;;;;;2.10;1.90;;;17.00;99.90;;;;;;5024397;28;20456;-92
2023/07/04 00:12:37;;;;;;;3.73;1.60;;;17.00;99.90;;;;;;5024106;28;20461;-91
2023/07/04 00:15:05;;;;;;;2.30;2.10;;;17.00;99.90;;;;;;5023148;28;20468;-92
2023/07/04 00:17:33;;;;;;;2.23;1.73;;;17.00;99.90;;;;;;5022431;28;20476;-92
2023/07/04 00:20:00;;;;;;;2.00;1.80;;;17.00;99.90;;;;;;5023801;28;20465;-92
2023/07/04 00:22:27;;;;;;;1.97;1.70;;;17.00;99.90;;;;;;5025324;28;20467;-93
2023/07/04 00:24:57;;;;;;;1.77;1.57;;;17.00;99.90;;;;;;5023465;28;20461;-92
2023/07/04 00:27:23;;;;;;;3.23;1.97;;;17.00;99.90;;;;;;5016114;28;20581;-92
2023/07/04 00:29:50;;;;;;;1.97;1.77;;;17.00;99.90;;;;;;5015813;28;20491;-92
2023/07/04 00:32:17;;;;;;;1.83;1.70;;;17.00;99.90;;;;;;5015898;28;20959;-92
2023/07/04 00:34:45;;;;;;;4.13;2.10;;;17.00;99.90;;;;;;5016046;28;20468;-92
2023/07/04 00:37:12;;;;;;;3.30;2.10;;;16.90;99.90;;;;;;5015140;28;20473;-91
2023/07/04 00:39:40;;;;;;;2.20;2.00;;;16.90;99.90;;;;;;5015557;28;20460;-92
2023/07/04 00:42:08;;;;;;;1.80;1.70;;;16.90;99.90;;;;;;5015579;28;20489;-92
2023/07/04 00:44:37;;;;;;;1.93;1.57;;;16.90;99.90;;;;;;5015489;28;20553;-93
2023/07/04 00:47:11;;;;;;;2.00;1.60;;;16.80;99.90;;;;;;5016127;28;20856;-92
2023/07/04 00:49:43;;;;;;;3.50;2.13;;;16.90;99.90;;;;;;5015664;28;20477;-92
2023/07/04 00:52:13;;;;;;;2.77;2.00;;;16.90;99.90;;;;;;5018032;28;20820;-92
2023/07/04 00:54:43;;;;;;;3.40;2.60;;;16.90;99.90;;;;;;5017612;28;20461;-93
2023/07/04 00:57:11;;;;;;;2.23;2.03;;;16.90;99.90;;;;;;5031178;28;20481;-92
2023/07/04 00:59:43;;;;;;;3.37;1.90;;;16.90;99.90;;;;;;5025023;28;20955;-91
2023/07/04 01:02:11;;;;;;;2.70;1.93;;;16.90;99.90;;;;;;5015870;28;20470;-92
2023/07/04 01:04:38;;;;;;;2.60;2.10;;;16.90;99.90;;;;;;5015315;28;20543;-91
2023/07/04 01:07:15;;;;;;;2.60;2.03;;;16.90;99.90;;;;;;5014874;28;21028;-92
2023/07/04 01:09:46;;;;;;;2.40;1.93;;;16.90;99.90;;;;;;5015206;28;20484;-93
2023/07/04 01:12:14;;;;;;;2.30;2.10;;;16.90;99.90;;;;;;5017482;28;20473;-92
2023/07/04 01:14:41;;;;;;;2.97;2.07;;;16.90;99.90;;;;;;5014963;28;20460;-93
2023/07/04 01:17:08;;;;;;;2.93;2.03;;;16.90;99.90;;;;;;5014711;28;20478;-92
2023/07/04 01:19:39;;;;;;;2.70;1.73;;;16.90;99.90;;;;;;5015210;28;20458;-91
2023/07/04 01:22:20;;;;;;;1.73;1.63;;;16.90;99.90;;;;;;5015084;28;20453;-92
2023/07/04 01:24:59;;;;;;;2.20;2.00;;;16.90;99.90;;;;;;5014878;28;20481;-92
2023/07/04 01:27:28;;;;;;;2.20;1.80;;;17.00;99.90;;;;;;5014520;28;20520;-92
2023/07/04 01:30:00;;;;;;;2.70;2.03;;;17.00;99.90;;;;;;5014684;28;20484;-91
2023/07/04 01:32:28;;;;;;;2.10;1.70;;;17.00;99.90;;;;;;5014400;28;20810;-91
2023/07/04 01:34:58;;;;;;;3.30;1.97;;;17.00;99.90;;;;;;5014602;28;20865;-90
2023/07/04 01:37:25;;;;;;;3.50;2.00;;;17.00;99.90;;;;;;5014579;28;20473;-92
2023/07/04 01:39:52;;;;;;;6.40;1.93;;;17.00;99.90;;;;;;5014460;28;20947;-92
2023/07/04 01:42:18;;;;;;;2.10;1.77;;;17.00;99.90;;;;;;5014367;28;20460;-92
2023/07/04 01:44:48;;;;;;;2.70;2.10;;;17.00;99.90;;;;;;5014234;28;20519;-92
2023/07/04 01:47:15;;;;;;;2.63;2.07;;;17.00;99.90;;;;;;5013967;28;20497;-92
2023/07/04 01:49:41;;;;;;;2.23;2.00;;;17.00;99.90;;;;;;5014465;28;20485;-91
2023/07/04 01:52:08;;;;;;;3.00;1.60;;;17.00;99.90;;;;;;5014387;28;20468;-92
2023/07/04 01:54:35;;;;;;;2.97;2.27;;;17.00;99.90;;;;;;5014417;28;20488;-92
2023/07/04 01:57:02;;;;;;;2.17;1.70;;;17.00;99.90;;;;;;5013829;28;20482;-92
2023/07/04 01:59:28;;;;;;;3.40;2.00;;;17.00;99.90;;;;;;5014298;28;20469;-93
2023/07/04 02:01:56;;;;;;;2.50;2.13;;;17.10;99.90;;;;;;5014312;28;20468;-92
2023/07/04 02:04:23;;;;;;;2.90;1.70;;;17.00;99.90;;;;;;5014130;28;20959;-91
2023/07/04 02:06:50;;;;;;;2.60;2.10;;;17.00;99.90;;;;;;5014129;28;20525;-92
2023/07/04 02:09:18;;;;;;;2.50;1.97;;;17.00;99.90;;;;;;5014170;28;20485;-92
2023/07/04 02:11:46;;;;;;;2.00;1.80;;;17.00;99.90;;;;;;5020432;28;20449;-91
2023/07/04 02:14:13;;;;;;;1.80;1.70;;;17.00;99.90;;;;;;5022377;28;20574;-92
2023/07/04 02:16:40;;;;;;;2.40;1.73;;;17.00;99.90;;;;;;5014953;28;20489;-92
2023/07/04 02:19:08;;;;;;;2.30;1.63;;;17.00;99.90;;;;;;5015129;28;20461;-91
2023/07/04 02:21:35;;;;;;;2.53;1.93;;;17.00;99.90;;;;;;5015849;28;20465;-93
2023/07/04 02:24:02;;;;;;;3.90;2.20;;;17.00;99.90;;;;;;5014878;28;20489;-92
2023/07/04 02:26:29;;;;;;;1.93;1.57;;;17.00;99.90;;;;;;5015838;28;20493;-92
2023/07/04 02:28:56;;;;;;;1.83;1.57;;;17.00;99.90;;;;;;5014418;28;20493;-93
2023/07/04 02:31:23;;;;;;;3.33;2.77;;;17.00;99.90;;;;;;5014626;28;20469;-94
2023/07/04 02:33:50;;;;;;;2.10;1.90;;;17.00;99.90;;;;;;5014370;28;20872;-91
2023/07/04 02:36:19;;;;;;;2.33;2.00;;;17.00;99.90;;;;;;5013829;28;21040;-92
2023/07/04 02:38:46;;;;;;;3.23;2.07;;;17.00;99.90;;;;;;5013505;28;20836;-93
2023/07/04 02:41:13;;;;;;;2.03;1.67;;;17.00;99.90;;;;;;5013674;28;20523;-92
2023/07/04 02:43:40;;;;;;;1.93;1.73;;;16.90;99.90;;;;;;5014317;28;20469;-92
2023/07/04 02:46:08;;;;;;;1.57;1.47;;;16.90;99.90;;;;;;5013920;28;20580;-93
2023/07/04 02:48:35;;;;;;;3.00;1.97;;;16.90;99.90;;;;;;5013321;28;20481;-94
2023/07/04 02:51:02;;;;;;;1.90;1.67;;;16.90;99.90;;;;;;5013823;28;20472;-94
2023/07/04 02:53:31;;;;;;;2.27;2.03;;;16.80;99.90;;;;;;5014367;28;20461;-92
2023/07/04 02:55:58;;;;;;;1.87;1.70;;;16.80;99.90;;;;;;5013186;28;20488;-92
2023/07/04 02:58:25;;;;;;;2.70;1.80;;;16.80;99.90;;;;;;5013279;28;20461;-92
2023/07/04 03:00:52;;;;;;;2.13;1.53;;;16.80;99.90;;;;;;5013417;28;20523;-92
2023/07/04 03:03:19;;;;;;;2.20;2.00;;;16.80;99.90;;;;;;5013311;28;20488;-92
2023/07/04 03:05:46;;;;;;;2.20;1.93;;;16.80;99.90;;;;;;5013022;28;20858;-92
2023/07/04 03:08:12;;;;;;;2.37;1.80;;;16.80;99.90;;;;;;5012765;28;20977;-91
2023/07/04 03:10:40;;;;;;;1.93;1.73;;;16.70;99.90;;;;;;5012878;28;20837;-92
2023/07/04 03:13:07;;;;;;;1.77;1.60;;;16.70;99.90;;;;;;5012891;28;20975;-92
2023/07/04 03:15:34;;;;;;;2.00;1.87;;;16.70;99.90;;;;;;5013056;28;20481;-92
2023/07/04 03:18:01;;;;;;;2.10;1.90;;;16.70;99.90;;;;;;5012819;28;20837;-92
2023/07/04 03:20:28;;;;;;;2.53;1.50;;;16.60;99.90;;;;;;5013386;28;20461;-92
2023/07/04 03:22:55;;;;;;;1.67;1.57;;;16.60;99.90;;;;;;5012898;28;20868;-91
2023/07/04 03:25:22;;;;;;;2.03;1.83;;;16.60;99.90;;;;;;5012921;28;20460;-92
2023/07/04 03:27:50;;;;;;;2.50;2.13;;;16.60;99.90;;;;;;5013107;28;20472;-92
2023/07/04 03:30:17;;;;;;;1.50;1.30;;;16.60;99.90;;;;;;5013170;28;20481;-91
2023/07/04 03:32:44;;;;;;;2.17;1.97;;;16.60;99.90;;;;;;5013089;28;20894;-91
2023/07/04 03:35:11;;;;;;;1.50;1.37;;;16.60;99.90;;;;;;5013098;28;20454;-91
2023/07/04 03:37:38;;;;;;;2.17;1.97;;;16.60;99.90;;;;;;5014912;28;20457;-92
2023/07/04 03:40:08;;;;;;;2.30;2.10;;;16.60;99.90;;;;;;5019668;28;20449;-90
2023/07/04 03:42:35;;;;;;;1.60;1.50;;;16.60;99.90;;;;;;5016868;28;20472;-92
2023/07/04 03:45:05;;;;;;;1.43;1.33;;;16.60;99.90;;;;;;5014165;28;20457;-91
2023/07/04 03:47:31;;;;;;;1.57;1.40;;;16.70;99.90;;;;;;5016006;28;20465;-90
2023/07/04 03:50:01;;;;;;;1.87;1.70;;;16.60;99.90;;;;;;5027669;28;20449;-95
2023/07/04 03:52:28;;;;;;;1.70;1.60;;;16.70;99.90;;;;;;5033476;28;20461;-94
2023/07/04 03:54:54;;;;;;;1.70;1.60;;;16.70;99.90;;;;;;5023755;28;20488;-92
2023/07/04 03:57:21;;;;;;;2.30;1.60;;;16.70;99.90;;;;;;5026041;28;20477;-91
2023/07/04 03:59:48;;;;;;;1.90;1.60;;;16.70;99.90;;;;;;5025666;28;20552;-91
2023/07/04 04:02:16;;;;;;;1.63;1.40;;;16.70;99.90;;;;;;5026140;28;20491;-92
2023/07/04 04:08:23;;;;;;;2.07;1.40;;;16.80;99.90;;;;;;4966440;28;21003;-91
2023/07/04 04:10:50;;;;;;;1.60;1.40;;;16.80;99.90;;;;;;5020331;28;20508;-92
2023/07/04 04:13:17;;;;;;;1.40;1.30;;;16.80;99.90;;;;;;5019444;28;20473;-92
2023/07/04 04:15:44;;;;;;;2.20;1.60;;;16.80;99.90;;;;;;5016803;28;20809;-92
2023/07/04 04:18:12;;;;;;;2.50;1.53;;;16.80;99.90;;;;;;5017536;28;20462;-92
2023/07/04 04:20:39;;;;;;;2.07;1.77;;;16.80;99.90;;;;;;5021507;28;20545;-93
2023/07/04 04:23:06;;;;;;;1.83;1.73;;;16.80;99.90;;;;;;5024768;28;20465;-92
2023/07/04 04:25:38;;;;;;;2.80;1.60;;;16.80;99.90;;;;;;5024613;28;20480;-93
2023/07/04 04:31:26;;;;;;;2.13;1.80;;;16.80;99.90;;;;;;5024727;28;20548;-92
2023/07/04 04:33:54;;;;;;;1.50;1.40;;;16.80;99.90;;;;;;5026058;28;20488;-93
2023/07/04 04:36:21;;;;;;;1.53;1.43;;;16.80;99.90;;;;;;5025803;28;20484;-93
2023/07/04 04:38:49;;;;;;;2.60;2.10;;;16.90;99.90;;;;;;5025767;28;20449;-93
2023/07/04 04:41:16;;;;;;;1.80;1.70;;;16.90;99.90;;;;;;5026134;28;20880;-92
2023/07/04 04:43:42;;;;;;;2.43;1.53;;;16.90;99.90;;;;;;5025977;28;20457;-92
2023/07/04 04:46:09;;;;;;;1.53;1.43;;;16.90;99.90;;;;;;5025984;28;20476;-92
2023/07/04 04:48:36;;;;;;;2.40;1.83;;;17.00;99.90;;;;;;5026286;28;20457;-93
2023/07/04 04:51:08;;;;;;;3.90;3.17;;;16.90;99.90;;;;;;5033826;28;20900;-92
2023/07/04 04:53:35;;;;;;;2.40;2.03;;;16.90;99.90;;;;;;5027341;28;20532;-92
2023/07/04 04:56:02;;;;;;;2.77;1.77;;;16.90;99.90;;;;;;5024684;28;20540;-93
2023/07/04 04:58:29;;;;;;;2.90;2.23;;;16.90;99.90;;;;;;5026049;28;20481;-94
2023/07/04 05:00:56;;;;;;;2.83;2.20;;;16.90;99.90;;;;;;5028233;28;20480;-92
2023/07/04 05:03:23;;;;;;;5.40;1.60;;;16.90;99.90;;;;;;5031259;28;20454;-93
2023/07/04 05:05:50;;;;;;;2.00;1.70;;;16.90;99.90;;;;;;5036497;28;20481;-93
2023/07/04 05:08:18;;;;;;;1.80;1.70;;;17.00;99.90;;;;;;5023642;28;20460;-92
2023/07/04 05:10:44;;;;;;;1.80;1.57;;;17.00;99.90;;;;;;5024783;28;20477;-89
2023/07/04 05:13:11;;;;;;;2.47;1.80;;;17.10;99.90;;;;;;5018667;28;20977;-90
2023/07/04 05:15:38;;;;;;;3.23;2.03;;;17.10;99.90;;;;;;5018137;28;20531;-90
2023/07/04 05:18:05;;;;;;;1.93;1.73;;;17.10;99.90;;;;;;5023131;28;20524;-91
2023/07/04 05:20:31;;;;;;;2.13;1.93;;;17.10;99.90;;;;;;5009288;28;20723;-91
2023/07/04 05:22:58;;;;;;;1.70;1.60;;;17.20;99.90;;;;;;5011068;28;20466;-91
2023/07/04 05:25:26;;;;;;;2.97;1.90;;;17.20;99.90;;;;;;5019548;28;20500;-90
2023/07/04 05:27:53;;;;;;;2.60;2.20;;;17.30;99.90;;;;;;5019635;28;20465;-90
2023/07/04 05:30:22;;;;;;;2.43;1.87;;;17.30;99.90;;;;;;5025806;28;20492;-90
2023/07/04 05:32:48;;;;;;;3.30;2.10;;;17.30;99.90;;;;;;5018477;28;20461;-91
2023/07/04 05:35:15;;;;;;;2.53;1.80;;;17.30;99.90;;;;;;5026396;28;20473;-91
2023/07/04 05:37:42;;;;;;;2.60;2.30;;;17.30;99.90;;;;;;5019584;28;20527;-91
2023/07/04 05:40:09;;;;;;;2.97;2.77;;;17.30;99.90;;;;;;5015871;28;21232;-91
2023/07/04 05:42:37;;;;;;;2.00;1.80;;;17.40;99.90;;;;;;5016850;28;20474;-90
2023/07/04 05:45:05;;;;;;;2.13;1.87;;;17.40;99.90;;;;;;5021062;28;20461;-91
2023/07/04 05:47:32;;;;;;;1.97;1.70;;;17.40;99.90;;;;;;5016206;28;20466;-89
2023/07/04 05:49:59;;;;;;;2.47;2.10;;;17.40;99.90;;;;;;5023791;28;20485;-91
2023/07/04 05:52:25;;;;;;;2.87;2.23;;;17.50;99.90;;;;;;5017023;28;20994;-90
2023/07/04 05:54:52;;;;;;;2.67;1.93;;;17.50;99.90;;;;;;5025628;28;20484;-90
2023/07/04 05:57:19;;;;;;;2.70;1.90;;;17.50;99.90;;;;;;5015771;28;20484;-89
2023/07/04 05:59:49;;;;;;;2.23;1.80;;;17.50;99.90;;;;;;5016411;28;20468;-90
2023/07/04 06:02:19;;;;;;;2.33;2.03;;;17.60;99.90;;;;;;5015432;28;20922;-89
2023/07/04 06:04:46;;;;;;;3.30;2.23;;;17.60;99.90;;;;;;5021490;28;20469;-90
2023/07/04 06:07:12;;;;;;;2.03;1.73;;;17.60;99.90;;;;;;5014585;28;20493;-90
2023/07/04 06:09:39;;;;;;;2.10;1.70;;;17.60;99.90;;;;;;5018605;28;21020;-90
2023/07/04 06:12:08;;;;;;;2.67;2.10;;;17.60;99.90;;;;;;5016609;28;20466;-90
2023/07/04 06:14:37;;;;;;;2.53;2.00;;;17.70;99.90;;;;;;5014479;28;20824;-89
2023/07/04 06:17:06;;;;;;;2.60;2.13;;;17.80;99.90;;;;;;5017090;28;20911;-91
2023/07/04 06:19:33;;;;;;;3.07;1.53;;;17.80;99.90;;;;;;5017312;28;20491;-90
2023/07/04 06:22:02;;;;;;;4.23;2.47;;;17.90;99.90;;;;;;5015624;28;20462;-91
2023/07/04 06:24:29;;;;;;;2.90;2.33;;;18.00;99.90;;;;;;5015678;28;20462;-89
2023/07/04 06:26:55;;;;;;;3.00;1.70;;;18.10;99.90;;;;;;5016129;28;20489;-90
2023/07/04 06:29:22;;;;;;;4.33;1.80;;;18.20;99.90;;;;;;5014605;28;20488;-89
2023/07/04 06:31:49;;;;;;;2.60;1.97;;;18.30;99.90;;;;;;5013840;28;20508;-90
2023/07/04 06:34:17;;;;;;;2.53;1.77;;;18.50;99.90;;;;;;5013268;28;21003;-89
2023/07/04 06:36:49;;;;;;;4.13;2.13;;;18.60;99.90;;;;;;5013542;28;20492;-90
2023/07/04 06:39:16;;;;;;;5.97;1.70;;;18.80;99.90;;;;;;5014076;28;20854;-89
2023/07/04 06:41:43;;;;;;;3.00;2.70;;;18.90;99.90;;;;;;5014803;28;20457;-89
2023/07/04 06:44:10;;;;;;;1.50;1.40;;;18.90;99.90;;;;;;5020278;28;20490;-91
2023/07/04 06:46:38;;;;;;;3.50;2.00;;;19.00;99.90;;;;;;5020572;28;20871;-90
2023/07/04 06:49:06;;;;;;;2.90;1.97;;;18.90;99.90;;;;;;5020934;28;20458;-91
2023/07/04 06:51:36;;;;;;;2.07;1.80;;;18.90;99.90;;;;;;5016111;28;20572;-90
2023/07/04 06:54:03;;;;;;;3.47;1.90;;;18.90;99.90;;;;;;5018576;28;20466;-89
2023/07/04 06:56:39;;;;;;;6.23;2.27;;;18.90;99.90;;;;;;5013262;28;20490;-90
2023/07/04 06:59:07;;;;;;;4.67;2.10;;;18.90;99.90;;;;;;5015168;28;20470;-90
2023/07/04 07:01:34;;;;;;;4.20;2.40;;;18.90;99.90;;;;;;5014297;28;20468;-91
2023/07/04 07:04:02;;;;;;;3.17;2.17;;;19.00;99.90;;;;;;5013496;28;20460;-90
2023/07/04 07:06:29;;;;;;;2.90;2.40;;;18.90;99.90;;;;;;5014045;28;20981;-90
2023/07/04 07:08:57;;;;;;;2.53;1.50;;;18.90;99.90;;;;;;5016193;28;20469;-90
2023/07/04 07:11:25;;;;;;;2.07;1.70;;;18.90;99.90;;;;;;5021418;28;20492;-89
2023/07/04 07:13:52;;;;;;;3.50;2.20;;;19.00;99.90;;;;;;5016539;28;20459;-91
2023/07/04 07:16:22;;;;;;;5.10;2.23;;;19.00;99.90;;;;;;5016012;28;20499;-90
2023/07/04 07:18:50;;;;;;;2.40;2.00;;;19.00;99.90;;;;;;5022824;28;20512;-91
2023/07/04 07:21:20;;;;;;;3.30;2.33;;;19.00;99.90;;;;;;5033407;28;20440;-91
2023/07/04 07:23:49;;;;;;;3.23;2.10;;;19.00;99.90;;;;;;5026052;28;20462;-90
2023/07/04 07:26:19;;;;;;;2.40;1.93;;;19.00;99.90;;;;;;5018949;28;20503;-92
2023/07/04 07:28:46;;;;;;;2.53;2.07;;;19.10;99.90;;;;;;5015552;28;20962;-90
2023/07/04 07:31:15;;;;;;;2.77;2.30;;;19.10;99.90;;;;;;5014411;28;20478;-90
2023/07/04 07:33:45;;;;;;;2.57;2.37;;;19.10;99.90;;;;;;5014641;28;20493;-90
2023/07/04 07:36:21;;;;;;;2.73;2.00;;;19.10;99.90;;;;;;5015448;28;20513;-89
2023/07/04 07:38:49;;;;;;;3.30;2.23;;;19.20;99.90;;;;;;5014806;28;20845;-91
2023/07/04 07:41:20;;;;;;;2.47;1.93;;;19.20;99.90;;;;;;5014142;28;20967;-90
2023/07/04 07:43:47;;;;;;;1.77;1.67;;;19.20;99.90;;;;;;5014689;28;20465;-90
2023/07/04 07:46:16;;;;;;;3.17;2.50;;;19.20;99.90;;;;;;5014928;28;20476;-91
2023/07/04 07:48:43;;;;;;;2.97;2.13;;;19.20;99.90;;;;;;5015886;28;20468;-91
2023/07/04 07:51:12;;;;;;;4.47;2.20;;;19.20;99.90;;;;;;5016426;28;20510;-89
2023/07/04 07:53:39;;;;;;;3.63;2.30;;;19.30;99.90;;;;;;5017998;28;20539;-90
2023/07/04 07:56:07;;;;;;;3.30;2.50;;;19.40;99.90;;;;;;5016266;28;20485;-90
2023/07/04 07:58:36;;;;;;;4.60;2.57;;;19.40;99.90;;;;;;5016332;28;20466;-90
2023/07/04 08:01:10;;;;;;;2.80;2.40;;;19.40;99.90;;;;;;5015698;28;20470;-89
2023/07/04 08:03:37;;;;;;;2.77;2.23;;;19.60;99.90;;;;;;5016072;28;20832;-89
2023/07/04 08:06:04;;;;;;;2.93;2.40;;;19.60;99.90;;;;;;5015783;28;20488;-89
2023/07/04 08:08:30;;;;;;;3.60;2.33;;;19.60;99.90;;;;;;5017864;28;20989;-91
2023/07/04 08:10:57;;;;;;;4.07;2.43;;;19.60;99.90;;;;;;5015697;28;20859;-90
2023/07/04 08:13:24;;;;;;;3.17;2.60;;;19.60;99.90;;;;;;5015585;28;20472;-90
2023/07/04 08:15:54;;;;;;;3.37;2.60;;;19.70;99.90;;;;;;5018130;28;20478;-91
2023/07/04 08:18:21;;;;;;;3.20;2.90;;;19.80;99.90;;;;;;5006950;28;20493;-89
2023/07/04 08:20:56;;;;;;;5.57;2.83;;;19.90;99.90;;;;;;5014163;28;21053;-90
2023/07/04 08:23:23;;;;;;;4.50;2.80;;;20.10;99.90;;;;;;5016804;28;20472;-91
2023/07/04 08:25:49;;;;;;;5.67;2.53;;;20.20;99.90;;;;;;5019003;28;20492;-90
2023/07/04 08:28:16;;;;;;;5.80;2.57;;;20.20;99.90;;;;;;5018021;28;20468;-89
2023/07/04 08:30:43;;;;;;;5.10;3.20;;;20.40;99.90;;;;;;5017645;28;20490;-90
2023/07/04 08:33:16;;;;;;;3.53;2.30;;;20.50;99.90;;;;;;5018183;28;20468;-90
2023/07/04 08:35:43;;;;;;;5.00;2.73;;;20.60;99.90;;;;;;5018373;28;20488;-88
2023/07/04 08:38:24;;;;;;;3.70;2.50;;;20.50;99.90;;;;;;5019108;28;20478;-89
2023/07/04 08:40:51;;;;;;;4.60;2.50;;;20.40;99.90;;;;;;5018425;28;20461;-91
2023/07/04 08:43:26;;;;;;;3.30;2.70;;;20.40;99.90;;;;;;5019653;28;20463;-89
2023/07/04 08:45:54;;;;;;;5.43;2.80;;;20.40;99.90;;;;;;5033166;28;20485;-93
2023/07/04 08:48:24;;;;;;;3.00;2.67;;;20.50;99.90;;;;;;5026854;28;20460;-94
2023/07/04 08:50:55;;;;;;;3.10;2.40;;;20.60;99.90;;;;;;5024670;28;20478;-92
2023/07/04 08:53:22;;;;;;;3.03;2.73;;;20.70;99.90;;;;;;5018876;28;20561;-92
2023/07/04 08:55:56;;;;;;;3.07;2.77;;;20.90;99.90;;;;;;5020429;28;20486;-92
2023/07/04 08:59:07;;;;;;;4.83;2.97;;;20.90;99.90;;;;;;5029951;28;20472;-92
2023/07/04 09:01:44;;;;;;;3.50;2.93;;;20.90;99.90;;;;;;5021522;28;20459;-93
2023/07/04 09:04:18;;;;;;;3.47;3.00;;;21.00;99.90;;;;;;5049762;22;20553;-71
2023/07/04 09:06:52;;;;;;;3.20;2.90;;;21.00;99.90;;;;;;5050294;28;20471;-70
2023/07/04 09:09:25;;;;;;;4.57;3.50;;;21.00;99.90;;;;;;5051553;28;20474;-71
2023/07/04 09:11:53;;;;;;;6.67;3.43;;;21.00;99.90;;;;;;5052367;28;20689;-72
2023/07/04 09:14:27;;;;;;;4.10;2.87;;;21.00;99.90;;;;;;5052924;28;20467;-72
2023/07/04 09:16:57;;;;;;;3.90;3.50;;;21.00;99.90;;;;;;5052495;28;20482;-73
2023/07/04 09:19:25;;;;;;;3.80;3.30;;;21.10;99.90;;;;;;5045368;28;20455;-69
2023/07/04 09:21:52;;;;;;;4.23;3.37;;;21.20;99.90;;;;;;5051958;28;20467;-71
2023/07/04 09:24:19;;;;;;;5.80;3.20;;;21.20;99.90;;;;;;5045980;28;20868;-70
2023/07/04 09:26:50;;;;;;;4.23;3.50;;;21.10;99.90;;;;;;5045396;28;20470;-69
2023/07/04 09:29:19;;;;;;;3.50;3.20;;;21.00;99.90;;;;;;5050081;28;20502;-71
2023/07/04 09:31:47;;;;;;;3.40;2.47;;;21.00;99.90;;;;;;5057964;28;20681;-71
2023/07/04 09:34:18;;;;;;;3.43;3.10;;;21.00;99.90;;;;;;5041593;28;20576;-71
2023/07/04 09:36:48;;;;;;;3.97;3.00;;;20.90;99.90;;;;;;5041563;28;20984;-71
2023/07/04 09:39:15;;;;;;;5.73;3.13;;;20.90;99.90;;;;;;5046645;28;20970;-70
2023/07/04 09:41:41;;;;;;;5.07;3.30;;;20.90;99.90;;;;;;5041261;28;20475;-71
2023/07/04 09:44:15;;;;;;;4.70;3.10;;;20.80;99.90;;;;;;5034510;28;20469;-71
2023/07/04 09:46:48;;;;;;;3.50;3.00;;;20.80;99.90;;;;;;5054636;28;20464;-71
2023/07/04 09:49:24;;;;;;;4.07;2.73;;;21.00;99.90;;;;;;5061181;28;20529;-71
2023/07/04 09:52:01;;;;;;;4.17;2.90;;;21.00;99.90;;;;;;5069400;28;20478;-71
2023/07/04 09:54:29;;;;;;;3.20;2.90;;;21.00;99.90;;;;;;5046688;28;20946;-71
2023/07/04 09:56:56;;;;;;;5.40;3.40;;;21.00;99.90;;;;;;5045496;28;20471;-71
2023/07/04 09:59:24;;;;;;;3.40;2.87;;;21.00;99.90;;;;;;5066403;28;20467;-70
2023/07/04 10:01:59;;;;;;;4.60;2.80;;;20.90;99.90;;;;;;5049453;28;20499;-71
2023/07/04 10:04:34;;;;;;;5.30;2.90;;;20.80;99.90;;;;;;5042055;28;20469;-71
2023/07/04 10:07:04;;;;;;;3.37;2.80;;;20.80;99.90;;;;;;5048494;28;20470;-71
2023/07/04 10:09:31;;;;;;;4.40;3.23;;;20.70;99.90;;;;;;5069671;28;20469;-71
2023/07/04 10:12:17;;;;;;;5.07;3.90;;;20.70;99.90;;;;;;5036083;28;20783;-71
2023/07/04 10:14:47;;;;;;;3.93;3.40;;;20.70;99.90;;;;;;5044872;28;20473;-71
2023/07/04 10:17:17;;;;;;;4.90;3.40;;;20.90;99.90;;;;;;5049095;28;20479;-71
2023/07/04 10:19:45;;;;;;;5.10;3.13;;;21.00;99.90;;;;;;5050482;28;20464;-71
2023/07/04 10:22:13;;;;;;;5.10;3.43;;;21.10;99.90;;;;;;5049079;28;20860;-76
2023/07/04 10:24:40;;;;;;;4.33;3.50;;;21.30;99.90;;;;;;5045339;28;20460;-71
2023/07/04 10:27:11;;;;;;;4.37;3.17;;;21.70;99.90;;;;;;5049814;28;20468;-71
2023/07/04 10:29:42;;;;;;;3.83;3.10;;;22.10;99.90;;;;;;5050222;28;20501;-71
2023/07/04 10:32:13;;;;;;;4.23;3.40;;;22.40;99.90;;;;;;5048233;28;20507;-70
2023/07/04 10:34:42;;;;;;;5.40;2.90;;;22.70;99.90;;;;;;5045329;28;20858;-70
2023/07/04 10:37:10;;;;;;;4.20;3.23;;;22.90;99.90;;;;;;5039599;28;20546;-70
2023/07/04 10:39:39;;;;;;;5.20;3.30;;;23.10;99.90;;;;;;5044529;28;20466;-70
2023/07/04 10:42:13;;;;;;;4.33;3.27;;;23.00;99.90;;;;;;5050948;28;20474;-70
2023/07/04 10:44:42;;;;;;;5.20;3.53;;;22.90;99.90;;;;;;5055363;28;20470;-70
2023/07/04 10:47:12;;;;;;;4.80;3.50;;;22.70;99.90;;;;;;5039772;28;20500;-70
2023/07/04 10:49:46;;;;;;;4.00;3.60;;;22.70;99.90;;;;;;5058499;28;20463;-70
2023/07/04 10:52:18;;;;;;;4.27;3.30;;;22.50;99.90;;;;;;5038779;28;20495;-70
2023/07/04 10:54:46;;;;;;;3.57;3.23;;;22.40;99.90;;;;;;5036426;28;20476;-70
2023/07/04 10:57:22;;;;;;;5.43;3.20;;;22.30;99.90;;;;;;5049045;28;20490;-70
2023/07/04 10:59:51;;;;;;;5.40;3.10;;;22.30;99.90;;;;;;5049497;28;20461;-70
2023/07/04 11:02:25;;;;;;;3.70;3.17;;;22.20;99.90;;;;;;5040903;28;20460;-71
2023/07/04 11:04:56;;;;;;;6.53;3.33;;;22.20;99.90;;;;;;5049202;28;20814;-70
2023/07/04 11:07:26;;;;;;;4.13;3.57;;;22.20;99.90;;;;;;5032772;28;20500;-75
2023/07/04 11:09:57;;;;;;;3.40;2.83;;;22.20;99.90;;;;;;5040952;28;20469;-72
2023/07/04 11:12:27;;;;;;;4.20;3.23;;;22.20;99.90;;;;;;5037766;28;20881;-71
2023/07/04 11:15:00;;;;;;;5.00;2.90;;;22.10;99.90;;;;;;5037184;28;20558;-70
2023/07/04 11:17:31;;;;;;;3.10;2.77;;;22.10;99.90;;;;;;5039795;28;20493;-71
2023/07/04 11:20:10;;;;;;;4.33;3.40;;;22.00;99.90;;;;;;5040648;28;20461;-70
2023/07/04 11:22:45;;;;;;;4.07;3.07;;;22.00;99.90;;;;;;5052521;28;20457;-72
2023/07/04 11:25:35;;;;;;;5.70;3.07;;;21.90;99.90;;;;;;5049164;28;20541;-69
2023/07/04 11:28:18;;;;;;;4.07;3.13;;;21.90;99.90;;;;;;5040381;28;20492;-69
2023/07/04 11:30:47;;;;;;;3.47;2.80;;;22.00;99.90;;;;;;5051273;28;20487;-69
2023/07/04 11:33:39;;;;;;;4.37;3.70;;;22.00;99.90;;;;;;5051597;28;20502;-69
2023/07/04 11:36:09;;;;;;;4.67;3.00;;;22.10;99.90;;;;;;5050906;28;20842;-72
2023/07/04 11:38:42;;;;;;;4.00;2.73;;;22.20;99.90;;;;;;5051758;28;20861;-73
2023/07/04 11:41:11;;;;;;;3.23;2.90;;;22.30;99.90;;;;;;5051739;28;20465;-71
2023/07/04 11:43:45;;;;;;;4.57;3.50;;;22.50;99.90;;;;;;5048908;28;20466;-73
2023/07/04 11:46:22;;;;;;;5.53;3.10;;;22.60;99.90;;;;;;5046960;28;20500;-72
2023/07/04 11:48:51;;;;;;;5.00;2.97;;;22.70;99.90;;;;;;5048981;28;20479;-70
2023/07/04 11:51:20;;;;;;;4.17;2.83;;;22.70;99.90;;;;;;5048698;28;20469;-71
2023/07/04 11:53:51;;;;;;;3.00;2.50;;;22.60;99.90;;;;;;5052133;28;20467;-73
2023/07/04 11:56:34;;;;;;;4.00;2.87;;;22.70;99.90;;;;;;5053219;28;20626;-72
2023/07/04 11:59:37;;;;;;;4.03;2.60;;;23.00;99.90;;;;;;5055256;28;20495;-72
2023/07/04 12:02:23;;;;;;;3.50;3.20;;;23.40;99.90;;;;;;5062593;28;20525;-72
2023/07/04 12:04:51;;;;;;;2.87;2.40;;;23.80;99.90;;;;;;5069359;28;20472;-72
2023/07/04 12:07:30;;;;;;;3.60;2.40;;;23.90;97.00;;;;;;5066754;28;20471;-70
2023/07/04 12:10:06;;;;;;;2.47;2.27;;;23.70;99.40;;;;;;5056937;28;20458;-71
2023/07/04 12:12:37;;;;;;;2.67;2.20;;;23.70;99.30;;;;;;5055047;28;20480;-70
2023/07/04 12:15:08;;;;;;;3.50;2.50;;;23.70;98.30;;;;;;5055052;28;20463;-70
2023/07/04 12:17:38;;;;;;;4.13;2.67;;;23.70;98.50;;;;;;5048572;28;20499;-70
2023/07/04 12:20:09;;;;;;;3.27;2.27;;;23.80;98.50;;;;;;5043651;28;20474;-70
2023/07/04 12:22:36;;;;;;;3.50;2.53;;;23.80;99.70;;;;;;5042325;28;20476;-73
2023/07/04 12:25:11;;;;;;;3.37;2.33;;;23.60;99.50;;;;;;5042557;28;20855;-73
2023/07/04 12:27:42;;;;;;;3.83;2.57;;;23.60;98.90;;;;;;5058605;28;21031;-72
2023/07/04 12:30:12;;;;;;;3.13;2.90;;;23.60;99.80;;;;;;5055124;28;20503;-73
2023/07/04 12:32:39;;;;;;;3.63;3.07;;;23.60;99.90;;;;;;5044291;28;20527;-71
2023/07/04 12:35:07;;;;;;;6.13;3.20;;;23.50;99.90;;;;;;5043512;28;20991;-71
2023/07/04 12:37:39;;;;;;;4.17;2.70;;;23.40;99.90;;;;;;5046353;28;20491;-70
2023/07/04 12:40:12;;;;;;;3.43;2.80;;;23.40;99.90;;;;;;5051715;28;20476;-71
2023/07/04 12:42:39;;;;;;;3.90;2.83;;;23.60;99.90;;;;;;5054229;28;20463;-70
2023/07/04 12:45:15;;;;;;;5.17;3.20;;;23.90;99.90;;;;;;5053395;28;20462;-72
2023/07/04 12:47:44;;;;;;;3.50;3.20;;;24.20;99.90;;;;;;5063028;28;20552;-72
2023/07/04 12:50:13;;;;;;;2.90;2.60;;;24.40;99.90;;;;;;5054680;28;20608;-73
2023/07/04 12:52:40;;;;;;;2.97;2.67;;;24.40;99.90;;;;;;5056785;28;20488;-71
2023/07/04 12:55:20;;;;;;;4.77;3.30;;;24.20;99.60;;;;;;5052597;28;20472;-72
2023/07/04 12:57:47;;;;;;;3.73;3.10;;;24.10;99.30;;;;;;5047100;28;20869;-71
2023/07/04 13:00:25;;;;;;;2.83;2.37;;;23.90;99.90;;;;;;5053966;28;20471;-71
2023/07/04 13:02:52;;;;;;;2.50;2.30;;;23.70;98.10;;;;;;5045620;28;20472;-71
2023/07/04 13:05:20;;;;;;;4.70;2.53;;;23.60;98.20;;;;;;5055362;28;20463;-70